sensor_id;sensor_type;location;lat;lon;timestamp;P1;durP1;ratioP1;P2;durP2;ratioP2
68250;SDS011;55066;51.560;4.642;2024-02-04T00:00:14;11.37;;;4.47;;
68250;SDS011;55066;51.560;4.642;2024-02-04T00:02:40;10.05;;;4.15;;
68250;SDS011;55066;51.560;4.642;2024-02-04T00:05:05;13.43;;;3.50;;
68250;SDS011;55066;51.560;4.642;2024-02-04T00:07:31;12.82;;;4.30;;
68250;SDS011;55066;51.560;4.642;2024-02-04T00:09:57;12.07;;;3.67;;
68250;SDS011;55066;51.560;4.642;2024-02-04T00:12:23;10.87;;;4.17;;
68250;SDS011;55066;51.560;4.642;2024-02-04T00:14:50;14.88;;;4.97;;
68250;SDS011;55066;51.560;4.642;2024-02-04T00:17:16;10.07;;;3.23;;
68250;SDS011;55066;51.560;4.642;2024-02-04T00:19:42;17.45;;;5.40;;
68250;SDS011;55066;51.560;4.642;2024-02-04T00:22:07;12.82;;;4.15;;
68250;SDS011;55066;51.560;4.642;2024-02-04T00:24:33;17.77;;;5.40;;
68250;SDS011;55066;51.560;4.642;2024-02-04T00:26:58;11.97;;;4.80;;
68250;SDS011;55066;51.560;4.642;2024-02-04T00:29:25;16.25;;;4.93;;
68250;SDS011;55066;51.560;4.642;2024-02-04T00:31:50;15.83;;;4.67;;
68250;SDS011;55066;51.560;4.642;2024-02-04T00:34:16;18.85;;;5.32;;
68250;SDS011;55066;51.560;4.642;2024-02-04T00:36:41;16.67;;;5.37;;
68250;SDS011;55066;51.560;4.642;2024-02-04T00:39:07;11.83;;;3.90;;
68250;SDS011;55066;51.560;4.642;2024-02-04T00:41:34;12.40;;;4.32;;
68250;SDS011;55066;51.560;4.642;2024-02-04T00:44:00;23.90;;;5.70;;
68250;SDS011;55066;51.560;4.642;2024-02-04T00:46:26;14.60;;;4.57;;
68250;SDS011;55066;51.560;4.642;2024-02-04T00:48:51;14.73;;;4.00;;
68250;SDS011;55066;51.560;4.642;2024-02-04T00:51:17;14.07;;;4.33;;
68250;SDS011;55066;51.560;4.642;2024-02-04T00:53:46;13.80;;;3.90;;
68250;SDS011;55066;51.560;4.642;2024-02-04T00:56:11;13.65;;;3.22;;
68250;SDS011;55066;51.560;4.642;2024-02-04T00:58:37;15.80;;;3.97;;
68250;SDS011;55066;51.560;4.642;2024-02-04T01:01:03;8.48;;;2.97;;
68250;SDS011;55066;51.560;4.642;2024-02-04T01:03:30;16.77;;;2.22;;
68250;SDS011;55066;51.560;4.642;2024-02-04T01:05:56;21.52;;;4.10;;
68250;SDS011;55066;51.560;4.642;2024-02-04T01:08:23;16.98;;;3.92;;
68250;SDS011;55066;51.560;4.642;2024-02-04T01:10:48;17.23;;;4.23;;
68250;SDS011;55066;51.560;4.642;2024-02-04T01:13:16;15.75;;;4.47;;
68250;SDS011;55066;51.560;4.642;2024-02-04T01:15:42;18.13;;;3.90;;
68250;SDS011;55066;51.560;4.642;2024-02-04T01:18:07;13.77;;;4.07;;
68250;SDS011;55066;51.560;4.642;2024-02-04T01:20:33;13.20;;;3.37;;
68250;SDS011;55066;51.560;4.642;2024-02-04T01:22:58;18.60;;;4.40;;
68250;SDS011;55066;51.560;4.642;2024-02-04T01:25:24;10.63;;;3.83;;
68250;SDS011;55066;51.560;4.642;2024-02-04T01:27:49;18.60;;;4.60;;
68250;SDS011;55066;51.560;4.642;2024-02-04T01:30:14;18.40;;;4.27;;
68250;SDS011;55066;51.560;4.642;2024-02-04T01:32:40;9.40;;;2.78;;
68250;SDS011;55066;51.560;4.642;2024-02-04T01:35:08;16.13;;;4.13;;
68250;SDS011;55066;51.560;4.642;2024-02-04T01:37:33;22.35;;;4.72;;
68250;SDS011;55066;51.560;4.642;2024-02-04T01:39:59;13.30;;;4.40;;
68250;SDS011;55066;51.560;4.642;2024-02-04T01:42:24;18.20;;;3.93;;
68250;SDS011;55066;51.560;4.642;2024-02-04T01:44:50;14.02;;;3.70;;
68250;SDS011;55066;51.560;4.642;2024-02-04T01:47:16;10.18;;;2.83;;
68250;SDS011;55066;51.560;4.642;2024-02-04T01:49:42;12.30;;;3.88;;
68250;SDS011;55066;51.560;4.642;2024-02-04T01:52:08;17.33;;;4.03;;
68250;SDS011;55066;51.560;4.642;2024-02-04T01:54:37;14.88;;;4.00;;
68250;SDS011;55066;51.560;4.642;2024-02-04T01:57:05;10.65;;;3.70;;
68250;SDS011;55066;51.560;4.642;2024-02-04T01:59:31;19.70;;;4.60;;
68250;SDS011;55066;51.560;4.642;2024-02-04T02:02:00;6.47;;;2.37;;
68250;SDS011;55066;51.560;4.642;2024-02-04T02:04:26;19.60;;;3.80;;
68250;SDS011;55066;51.560;4.642;2024-02-04T02:06:52;15.50;;;3.22;;
68250;SDS011;55066;51.560;4.642;2024-02-04T02:09:19;18.80;;;4.68;;
68250;SDS011;55066;51.560;4.642;2024-02-04T02:11:48;18.00;;;4.20;;
68250;SDS011;55066;51.560;4.642;2024-02-04T02:14:23;14.57;;;3.92;;
68250;SDS011;55066;51.560;4.642;2024-02-04T02:16:54;7.80;;;2.55;;
68250;SDS011;55066;51.560;4.642;2024-02-04T02:19:44;15.27;;;3.75;;
68250;SDS011;55066;51.560;4.642;2024-02-04T02:23:03;17.77;;;3.70;;
68250;SDS011;55066;51.560;4.642;2024-02-04T02:25:26;16.10;;;3.70;;
68250;SDS011;55066;51.560;4.642;2024-02-04T02:27:52;7.03;;;2.43;;
68250;SDS011;55066;51.560;4.642;2024-02-04T02:30:18;16.77;;;3.85;;
68250;SDS011;55066;51.560;4.642;2024-02-04T02:32:44;14.13;;;2.40;;
68250;SDS011;55066;51.560;4.642;2024-02-04T02:35:19;14.75;;;3.13;;
68250;SDS011;55066;51.560;4.642;2024-02-04T02:40:47;17.52;;;4.10;;
68250;SDS011;55066;51.560;4.642;2024-02-04T02:43:16;12.65;;;2.95;;
68250;SDS011;55066;51.560;4.642;2024-02-04T02:45:43;22.38;;;4.22;;
68250;SDS011;55066;51.560;4.642;2024-02-04T02:48:10;17.40;;;4.00;;
68250;SDS011;55066;51.560;4.642;2024-02-04T02:50:37;18.75;;;4.38;;
68250;SDS011;55066;51.560;4.642;2024-02-04T02:53:03;18.80;;;4.22;;
68250;SDS011;55066;51.560;4.642;2024-02-04T02:55:29;20.73;;;4.07;;
68250;SDS011;55066;51.560;4.642;2024-02-04T02:57:55;17.63;;;4.45;;
68250;SDS011;55066;51.560;4.642;2024-02-04T03:00:20;17.83;;;4.07;;
68250;SDS011;55066;51.560;4.642;2024-02-04T03:02:46;17.57;;;4.30;;
68250;SDS011;55066;51.560;4.642;2024-02-04T03:05:12;13.57;;;3.92;;
68250;SDS011;55066;51.560;4.642;2024-02-04T03:07:38;15.53;;;3.50;;
68250;SDS011;55066;51.560;4.642;2024-02-04T03:10:03;23.63;;;4.45;;
68250;SDS011;55066;51.560;4.642;2024-02-04T03:12:29;19.43;;;4.80;;
68250;SDS011;55066;51.560;4.642;2024-02-04T03:14:55;14.40;;;3.97;;
68250;SDS011;55066;51.560;4.642;2024-02-04T03:17:21;16.87;;;4.53;;
68250;SDS011;55066;51.560;4.642;2024-02-04T03:19:48;16.10;;;3.85;;
68250;SDS011;55066;51.560;4.642;2024-02-04T03:22:14;10.75;;;3.90;;
68250;SDS011;55066;51.560;4.642;2024-02-04T03:24:40;20.63;;;4.32;;
68250;SDS011;55066;51.560;4.642;2024-02-04T03:27:06;13.35;;;2.50;;
68250;SDS011;55066;51.560;4.642;2024-02-04T03:29:31;11.07;;;3.73;;
68250;SDS011;55066;51.560;4.642;2024-02-04T03:31:57;17.42;;;3.30;;
68250;SDS011;55066;51.560;4.642;2024-02-04T03:34:23;18.42;;;3.92;;
68250;SDS011;55066;51.560;4.642;2024-02-04T03:36:48;16.85;;;3.83;;
68250;SDS011;55066;51.560;4.642;2024-02-04T03:39:14;15.10;;;3.45;;
68250;SDS011;55066;51.560;4.642;2024-02-04T03:41:39;21.13;;;3.97;;
68250;SDS011;55066;51.560;4.642;2024-02-04T03:44:05;20.73;;;4.63;;
68250;SDS011;55066;51.560;4.642;2024-02-04T03:46:32;27.83;;;4.77;;
68250;SDS011;55066;51.560;4.642;2024-02-04T03:48:57;9.65;;;3.17;;
68250;SDS011;55066;51.560;4.642;2024-02-04T03:51:23;18.53;;;4.13;;
68250;SDS011;55066;51.560;4.642;2024-02-04T03:53:50;18.37;;;4.27;;
68250;SDS011;55066;51.560;4.642;2024-02-04T03:56:16;10.23;;;3.17;;
68250;SDS011;55066;51.560;4.642;2024-02-04T03:58:41;13.27;;;3.60;;
68250;SDS011;55066;51.560;4.642;2024-02-04T04:01:10;15.60;;;4.00;;
68250;SDS011;55066;51.560;4.642;2024-02-04T04:03:41;14.60;;;3.70;;
68250;SDS011;55066;51.560;4.642;2024-02-04T04:06:07;11.80;;;3.25;;
68250;SDS011;55066;51.560;4.642;2024-02-04T04:08:33;7.22;;;2.22;;
68250;SDS011;55066;51.560;4.642;2024-02-04T04:10:59;9.73;;;2.87;;
68250;SDS011;55066;51.560;4.642;2024-02-04T04:13:24;13.33;;;3.53;;
68250;SDS011;55066;51.560;4.642;2024-02-04T04:15:50;14.80;;;3.70;;
68250;SDS011;55066;51.560;4.642;2024-02-04T04:18:16;13.73;;;3.70;;
68250;SDS011;55066;51.560;4.642;2024-02-04T04:20:41;12.45;;;3.75;;
68250;SDS011;55066;51.560;4.642;2024-02-04T04:23:07;10.07;;;3.27;;
68250;SDS011;55066;51.560;4.642;2024-02-04T04:25:32;13.43;;;3.13;;
68250;SDS011;55066;51.560;4.642;2024-02-04T04:27:58;19.10;;;3.90;;
68250;SDS011;55066;51.560;4.642;2024-02-04T04:30:24;13.57;;;3.90;;
68250;SDS011;55066;51.560;4.642;2024-02-04T04:32:49;12.93;;;3.10;;
68250;SDS011;55066;51.560;4.642;2024-02-04T04:35:15;18.30;;;3.90;;
68250;SDS011;55066;51.560;4.642;2024-02-04T04:37:40;13.63;;;4.13;;
68250;SDS011;55066;51.560;4.642;2024-02-04T04:40:06;14.90;;;3.80;;
68250;SDS011;55066;51.560;4.642;2024-02-04T04:42:32;16.15;;;4.65;;
68250;SDS011;55066;51.560;4.642;2024-02-04T04:44:58;17.03;;;4.73;;
68250;SDS011;55066;51.560;4.642;2024-02-04T04:47:23;13.45;;;4.38;;
68250;SDS011;55066;51.560;4.642;2024-02-04T04:49:48;11.90;;;3.33;;
68250;SDS011;55066;51.560;4.642;2024-02-04T04:52:14;17.17;;;4.63;;
68250;SDS011;55066;51.560;4.642;2024-02-04T04:54:40;14.02;;;4.35;;
68250;SDS011;55066;51.560;4.642;2024-02-04T04:57:05;18.40;;;4.90;;
68250;SDS011;55066;51.560;4.642;2024-02-04T04:59:31;20.73;;;5.17;;
68250;SDS011;55066;51.560;4.642;2024-02-04T05:01:57;13.55;;;4.32;;
68250;SDS011;55066;51.560;4.642;2024-02-04T05:04:22;11.73;;;3.97;;
68250;SDS011;55066;51.560;4.642;2024-02-04T05:06:50;12.07;;;3.95;;
68250;SDS011;55066;51.560;4.642;2024-02-04T05:09:16;13.02;;;3.83;;
68250;SDS011;55066;51.560;4.642;2024-02-04T05:11:42;14.43;;;3.20;;
68250;SDS011;55066;51.560;4.642;2024-02-04T05:14:07;14.43;;;4.32;;
68250;SDS011;55066;51.560;4.642;2024-02-04T05:16:33;10.10;;;3.27;;
68250;SDS011;55066;51.560;4.642;2024-02-04T05:18:58;16.70;;;4.20;;
68250;SDS011;55066;51.560;4.642;2024-02-04T05:21:24;13.48;;;3.58;;
68250;SDS011;55066;51.560;4.642;2024-02-04T05:23:49;15.93;;;3.67;;
68250;SDS011;55066;51.560;4.642;2024-02-04T05:26:17;16.37;;;3.80;;
68250;SDS011;55066;51.560;4.642;2024-02-04T05:28:43;14.00;;;3.50;;
68250;SDS011;55066;51.560;4.642;2024-02-04T05:31:09;10.73;;;2.95;;
68250;SDS011;55066;51.560;4.642;2024-02-04T05:33:34;13.77;;;3.60;;
68250;SDS011;55066;51.560;4.642;2024-02-04T05:36:00;11.63;;;3.17;;
68250;SDS011;55066;51.560;4.642;2024-02-04T05:38:25;12.40;;;3.67;;
68250;SDS011;55066;51.560;4.642;2024-02-04T05:40:51;13.60;;;3.83;;
68250;SDS011;55066;51.560;4.642;2024-02-04T05:43:16;7.90;;;2.67;;
68250;SDS011;55066;51.560;4.642;2024-02-04T05:45:42;10.07;;;2.37;;
68250;SDS011;55066;51.560;4.642;2024-02-04T05:48:07;12.37;;;2.93;;
68250;SDS011;55066;51.560;4.642;2024-02-04T05:50:33;17.95;;;3.63;;
68250;SDS011;55066;51.560;4.642;2024-02-04T05:52:59;10.20;;;2.90;;
68250;SDS011;55066;51.560;4.642;2024-02-04T05:55:26;13.35;;;2.88;;
68250;SDS011;55066;51.560;4.642;2024-02-04T05:57:51;7.75;;;3.10;;
68250;SDS011;55066;51.560;4.642;2024-02-04T06:00:17;9.77;;;2.93;;
68250;SDS011;55066;51.560;4.642;2024-02-04T06:02:43;10.45;;;2.58;;
68250;SDS011;55066;51.560;4.642;2024-02-04T06:05:12;10.98;;;3.05;;
68250;SDS011;55066;51.560;4.642;2024-02-04T06:07:39;9.07;;;2.45;;
68250;SDS011;55066;51.560;4.642;2024-02-04T06:10:08;11.73;;;3.27;;
68250;SDS011;55066;51.560;4.642;2024-02-04T06:12:34;10.05;;;2.47;;
68250;SDS011;55066;51.560;4.642;2024-02-04T06:14:59;10.53;;;2.80;;
68250;SDS011;55066;51.560;4.642;2024-02-04T06:17:25;4.63;;;1.88;;
68250;SDS011;55066;51.560;4.642;2024-02-04T06:19:51;9.93;;;3.15;;
68250;SDS011;55066;51.560;4.642;2024-02-04T06:22:17;7.10;;;2.60;;
68250;SDS011;55066;51.560;4.642;2024-02-04T06:24:42;7.63;;;2.78;;
68250;SDS011;55066;51.560;4.642;2024-02-04T06:27:08;11.60;;;3.07;;
68250;SDS011;55066;51.560;4.642;2024-02-04T06:29:35;9.95;;;2.80;;
68250;SDS011;55066;51.560;4.642;2024-02-04T06:32:00;12.13;;;2.30;;
68250;SDS011;55066;51.560;4.642;2024-02-04T06:34:28;10.38;;;3.10;;
68250;SDS011;55066;51.560;4.642;2024-02-04T06:36:54;9.80;;;2.60;;
68250;SDS011;55066;51.560;4.642;2024-02-04T06:39:19;8.63;;;2.70;;
68250;SDS011;55066;51.560;4.642;2024-02-04T06:41:45;11.70;;;3.10;;
68250;SDS011;55066;51.560;4.642;2024-02-04T06:44:11;9.70;;;2.70;;
68250;SDS011;55066;51.560;4.642;2024-02-04T06:46:37;7.40;;;2.25;;
68250;SDS011;55066;51.560;4.642;2024-02-04T06:49:02;12.57;;;2.63;;
68250;SDS011;55066;51.560;4.642;2024-02-04T06:51:28;6.75;;;2.53;;
68250;SDS011;55066;51.560;4.642;2024-02-04T06:53:53;13.03;;;3.07;;
68250;SDS011;55066;51.560;4.642;2024-02-04T06:56:19;11.38;;;2.22;;
68250;SDS011;55066;51.560;4.642;2024-02-04T06:58:45;10.25;;;2.78;;
68250;SDS011;55066;51.560;4.642;2024-02-04T07:01:10;7.70;;;2.30;;
68250;SDS011;55066;51.560;4.642;2024-02-04T07:03:36;6.70;;;2.35;;
68250;SDS011;55066;51.560;4.642;2024-02-04T07:06:02;10.47;;;2.80;;
68250;SDS011;55066;51.560;4.642;2024-02-04T07:08:27;8.80;;;2.33;;
68250;SDS011;55066;51.560;4.642;2024-02-04T07:10:53;7.28;;;2.90;;
68250;SDS011;55066;51.560;4.642;2024-02-04T07:13:18;6.22;;;2.20;;
68250;SDS011;55066;51.560;4.642;2024-02-04T07:15:44;10.30;;;2.80;;
68250;SDS011;55066;51.560;4.642;2024-02-04T07:18:10;13.60;;;3.27;;
68250;SDS011;55066;51.560;4.642;2024-02-04T07:20:36;5.40;;;2.00;;
68250;SDS011;55066;51.560;4.642;2024-02-04T07:23:02;9.43;;;2.50;;
68250;SDS011;55066;51.560;4.642;2024-02-04T07:25:28;8.73;;;2.30;;
68250;SDS011;55066;51.560;4.642;2024-02-04T07:27:54;4.40;;;1.80;;
68250;SDS011;55066;51.560;4.642;2024-02-04T07:30:19;9.17;;;2.33;;
68250;SDS011;55066;51.560;4.642;2024-02-04T07:32:46;7.18;;;2.40;;
68250;SDS011;55066;51.560;4.642;2024-02-04T07:35:11;6.40;;;2.23;;
68250;SDS011;55066;51.560;4.642;2024-02-04T07:37:37;6.90;;;2.10;;
68250;SDS011;55066;51.560;4.642;2024-02-04T07:40:04;8.93;;;2.22;;
68250;SDS011;55066;51.560;4.642;2024-02-04T07:42:31;8.63;;;2.00;;
68250;SDS011;55066;51.560;4.642;2024-02-04T07:44:56;7.20;;;2.15;;
68250;SDS011;55066;51.560;4.642;2024-02-04T07:47:22;6.80;;;2.17;;
68250;SDS011;55066;51.560;4.642;2024-02-04T07:49:48;8.20;;;2.57;;
68250;SDS011;55066;51.560;4.642;2024-02-04T07:52:14;8.93;;;2.20;;
68250;SDS011;55066;51.560;4.642;2024-02-04T07:54:39;8.77;;;2.33;;
68250;SDS011;55066;51.560;4.642;2024-02-04T07:57:05;7.57;;;2.22;;
68250;SDS011;55066;51.560;4.642;2024-02-04T07:59:30;7.55;;;1.40;;
68250;SDS011;55066;51.560;4.642;2024-02-04T08:01:56;5.10;;;1.93;;
68250;SDS011;55066;51.560;4.642;2024-02-04T08:04:21;6.93;;;2.10;;
68250;SDS011;55066;51.560;4.642;2024-02-04T08:06:48;7.30;;;2.47;;
68250;SDS011;55066;51.560;4.642;2024-02-04T08:09:13;6.97;;;2.33;;
68250;SDS011;55066;51.560;4.642;2024-02-04T08:11:39;8.27;;;2.30;;
68250;SDS011;55066;51.560;4.642;2024-02-04T08:14:05;4.50;;;1.80;;
68250;SDS011;55066;51.560;4.642;2024-02-04T08:16:30;6.65;;;2.30;;
68250;SDS011;55066;51.560;4.642;2024-02-04T08:18:56;5.47;;;1.63;;
68250;SDS011;55066;51.560;4.642;2024-02-04T08:21:21;6.40;;;2.20;;
68250;SDS011;55066;51.560;4.642;2024-02-04T08:23:47;6.13;;;2.03;;
68250;SDS011;55066;51.560;4.642;2024-02-04T08:26:12;6.93;;;1.90;;
68250;SDS011;55066;51.560;4.642;2024-02-04T08:28:38;5.77;;;1.83;;
68250;SDS011;55066;51.560;4.642;2024-02-04T08:31:03;7.70;;;2.30;;
68250;SDS011;55066;51.560;4.642;2024-02-04T08:33:29;5.30;;;1.83;;
68250;SDS011;55066;51.560;4.642;2024-02-04T08:35:54;6.13;;;1.27;;
68250;SDS011;55066;51.560;4.642;2024-02-04T08:38:20;6.80;;;1.73;;
68250;SDS011;55066;51.560;4.642;2024-02-04T08:40:45;6.32;;;1.92;;
68250;SDS011;55066;51.560;4.642;2024-02-04T08:43:11;7.80;;;1.83;;
68250;SDS011;55066;51.560;4.642;2024-02-04T08:45:36;6.50;;;1.77;;
68250;SDS011;55066;51.560;4.642;2024-02-04T08:48:02;6.73;;;1.87;;
68250;SDS011;55066;51.560;4.642;2024-02-04T08:50:28;6.55;;;1.67;;
68250;SDS011;55066;51.560;4.642;2024-02-04T08:52:54;3.65;;;1.38;;
68250;SDS011;55066;51.560;4.642;2024-02-04T08:55:19;6.15;;;1.80;;
68250;SDS011;55066;51.560;4.642;2024-02-04T08:57:45;10.40;;;2.10;;
68250;SDS011;55066;51.560;4.642;2024-02-04T09:00:10;5.07;;;2.00;;
68250;SDS011;55066;51.560;4.642;2024-02-04T09:02:37;7.93;;;2.20;;
68250;SDS011;55066;51.560;4.642;2024-02-04T09:05:03;5.03;;;2.15;;
68250;SDS011;55066;51.560;4.642;2024-02-04T09:07:30;8.25;;;2.55;;
68250;SDS011;55066;51.560;4.642;2024-02-04T09:09:56;4.38;;;1.77;;
68250;SDS011;55066;51.560;4.642;2024-02-04T09:12:22;7.23;;;3.20;;
68250;SDS011;55066;51.560;4.642;2024-02-04T09:14:47;6.80;;;2.10;;
68250;SDS011;55066;51.560;4.642;2024-02-04T09:17:13;7.35;;;2.88;;
68250;SDS011;55066;51.560;4.642;2024-02-04T09:19:39;6.80;;;2.40;;
68250;SDS011;55066;51.560;4.642;2024-02-04T09:22:04;8.20;;;3.03;;
68250;SDS011;55066;51.560;4.642;2024-02-04T09:24:30;4.93;;;2.30;;
68250;SDS011;55066;51.560;4.642;2024-02-04T09:26:55;7.20;;;3.60;;
68250;SDS011;55066;51.560;4.642;2024-02-04T09:29:21;10.35;;;3.80;;
68250;SDS011;55066;51.560;4.642;2024-02-04T09:31:46;9.07;;;3.57;;
68250;SDS011;55066;51.560;4.642;2024-02-04T09:34:14;13.73;;;3.53;;
68250;SDS011;55066;51.560;4.642;2024-02-04T09:36:40;10.73;;;2.60;;
68250;SDS011;55066;51.560;4.642;2024-02-04T09:39:05;7.60;;;3.00;;
68250;SDS011;55066;51.560;4.642;2024-02-04T09:41:31;6.88;;;3.17;;
68250;SDS011;55066;51.560;4.642;2024-02-04T09:43:56;11.13;;;3.30;;
68250;SDS011;55066;51.560;4.642;2024-02-04T09:46:24;12.02;;;3.25;;
68250;SDS011;55066;51.560;4.642;2024-02-04T09:48:50;7.15;;;2.63;;
68250;SDS011;55066;51.560;4.642;2024-02-04T09:51:17;8.38;;;2.92;;
68250;SDS011;55066;51.560;4.642;2024-02-04T09:53:43;4.67;;;1.90;;
68250;SDS011;55066;51.560;4.642;2024-02-04T09:56:09;11.32;;;3.83;;
68250;SDS011;55066;51.560;4.642;2024-02-04T09:58:37;5.80;;;2.58;;
68250;SDS011;55066;51.560;4.642;2024-02-04T10:01:06;5.00;;;2.17;;
68250;SDS011;55066;51.560;4.642;2024-02-04T10:03:35;7.28;;;2.65;;
68250;SDS011;55066;51.560;4.642;2024-02-04T10:06:01;5.40;;;2.10;;
68250;SDS011;55066;51.560;4.642;2024-02-04T10:08:26;7.30;;;2.93;;
68250;SDS011;55066;51.560;4.642;2024-02-04T10:10:52;11.70;;;3.67;;
68250;SDS011;55066;51.560;4.642;2024-02-04T10:13:19;9.98;;;3.40;;
68250;SDS011;55066;51.560;4.642;2024-02-04T10:15:46;9.00;;;3.25;;
68250;SDS011;55066;51.560;4.642;2024-02-04T10:18:12;10.50;;;3.72;;
68250;SDS011;55066;51.560;4.642;2024-02-04T10:20:38;7.53;;;2.60;;
68250;SDS011;55066;51.560;4.642;2024-02-04T10:23:03;9.20;;;3.27;;
68250;SDS011;55066;51.560;4.642;2024-02-04T10:25:29;8.27;;;3.20;;
68250;SDS011;55066;51.560;4.642;2024-02-04T10:27:55;9.63;;;3.08;;
68250;SDS011;55066;51.560;4.642;2024-02-04T10:30:21;5.13;;;2.00;;
68250;SDS011;55066;51.560;4.642;2024-02-04T10:32:50;6.40;;;2.72;;
68250;SDS011;55066;51.560;4.642;2024-02-04T10:35:16;8.00;;;2.97;;
68250;SDS011;55066;51.560;4.642;2024-02-04T10:37:44;6.30;;;2.45;;
68250;SDS011;55066;51.560;4.642;2024-02-04T10:40:12;7.85;;;2.78;;
68250;SDS011;55066;51.560;4.642;2024-02-04T10:42:38;6.72;;;2.08;;
68250;SDS011;55066;51.560;4.642;2024-02-04T10:45:06;9.43;;;2.90;;
68250;SDS011;55066;51.560;4.642;2024-02-04T10:47:36;7.78;;;2.63;;
68250;SDS011;55066;51.560;4.642;2024-02-04T10:50:04;4.97;;;1.98;;
68250;SDS011;55066;51.560;4.642;2024-02-04T10:52:37;7.05;;;2.25;;
68250;SDS011;55066;51.560;4.642;2024-02-04T10:55:07;6.72;;;2.30;;
68250;SDS011;55066;51.560;4.642;2024-02-04T10:57:37;7.05;;;2.60;;
68250;SDS011;55066;51.560;4.642;2024-02-04T11:00:04;6.68;;;2.50;;
68250;SDS011;55066;51.560;4.642;2024-02-04T11:02:34;7.55;;;2.97;;
68250;SDS011;55066;51.560;4.642;2024-02-04T11:05:00;5.60;;;2.53;;
68250;SDS011;55066;51.560;4.642;2024-02-04T11:07:31;6.57;;;2.25;;
68250;SDS011;55066;51.560;4.642;2024-02-04T11:09:59;4.88;;;2.28;;
68250;SDS011;55066;51.560;4.642;2024-02-04T11:12:25;7.70;;;1.95;;
68250;SDS011;55066;51.560;4.642;2024-02-04T11:14:54;6.85;;;1.73;;
68250;SDS011;55066;51.560;4.642;2024-02-04T11:20:31;4.50;;;1.42;;
68250;SDS011;55066;51.560;4.642;2024-02-04T11:23:22;6.15;;;1.73;;
68250;SDS011;55066;51.560;4.642;2024-02-04T11:26:05;7.32;;;2.15;;
68250;SDS011;55066;51.560;4.642;2024-02-04T11:28:31;3.70;;;1.60;;
68250;SDS011;55066;51.560;4.642;2024-02-04T11:30:58;5.45;;;1.80;;
68250;SDS011;55066;51.560;4.642;2024-02-04T11:33:24;5.03;;;1.80;;
68250;SDS011;55066;51.560;4.642;2024-02-04T11:36:05;4.50;;;1.50;;
68250;SDS011;55066;51.560;4.642;2024-02-04T11:38:35;5.20;;;1.40;;
68250;SDS011;55066;51.560;4.642;2024-02-04T11:41:05;4.03;;;1.33;;
68250;SDS011;55066;51.560;4.642;2024-02-04T11:43:33;4.68;;;1.55;;
68250;SDS011;55066;51.560;4.642;2024-02-04T11:46:02;3.35;;;1.17;;
68250;SDS011;55066;51.560;4.642;2024-02-04T11:48:34;4.57;;;1.50;;
68250;SDS011;55066;51.560;4.642;2024-02-04T11:51:01;3.45;;;1.08;;
68250;SDS011;55066;51.560;4.642;2024-02-04T11:53:29;3.75;;;1.15;;
68250;SDS011;55066;51.560;4.642;2024-02-04T11:56:01;5.47;;;1.20;;
68250;SDS011;55066;51.560;4.642;2024-02-04T11:58:28;2.58;;;1.10;;
68250;SDS011;55066;51.560;4.642;2024-02-04T12:00:54;2.73;;;1.00;;
68250;SDS011;55066;51.560;4.642;2024-02-04T12:03:32;4.68;;;1.02;;
68250;SDS011;55066;51.560;4.642;2024-02-04T12:05:59;3.70;;;1.20;;
68250;SDS011;55066;51.560;4.642;2024-02-04T12:08:25;5.38;;;1.33;;
68250;SDS011;55066;51.560;4.642;2024-02-04T12:10:52;3.50;;;0.90;;
68250;SDS011;55066;51.560;4.642;2024-02-04T12:13:18;5.63;;;1.38;;
68250;SDS011;55066;51.560;4.642;2024-02-04T12:15:45;6.10;;;1.27;;
68250;SDS011;55066;51.560;4.642;2024-02-04T12:18:11;3.58;;;1.08;;
68250;SDS011;55066;51.560;4.642;2024-02-04T12:20:39;7.47;;;1.05;;
68250;SDS011;55066;51.560;4.642;2024-02-04T12:23:05;4.13;;;1.35;;
68250;SDS011;55066;51.560;4.642;2024-02-04T12:25:31;3.15;;;0.82;;
68250;SDS011;55066;51.560;4.642;2024-02-04T12:27:58;3.45;;;1.20;;
68250;SDS011;55066;51.560;4.642;2024-02-04T12:30:24;1.58;;;0.70;;
68250;SDS011;55066;51.560;4.642;2024-02-04T12:32:59;3.53;;;0.70;;
68250;SDS011;55066;51.560;4.642;2024-02-04T12:35:26;4.28;;;1.10;;
68250;SDS011;55066;51.560;4.642;2024-02-04T12:37:56;3.70;;;0.93;;
68250;SDS011;55066;51.560;4.642;2024-02-04T12:40:22;7.50;;;0.98;;
68250;SDS011;55066;51.560;4.642;2024-02-04T12:42:59;4.40;;;1.00;;
68250;SDS011;55066;51.560;4.642;2024-02-04T12:45:27;3.45;;;0.55;;
68250;SDS011;55066;51.560;4.642;2024-02-04T12:47:53;3.28;;;0.82;;
68250;SDS011;55066;51.560;4.642;2024-02-04T12:50:23;2.43;;;0.60;;
68250;SDS011;55066;51.560;4.642;2024-02-04T12:53:01;4.28;;;0.90;;
68250;SDS011;55066;51.560;4.642;2024-02-04T12:55:29;1.88;;;0.70;;
68250;SDS011;55066;51.560;4.642;2024-02-04T12:58:12;5.20;;;1.00;;
68250;SDS011;55066;51.560;4.642;2024-02-04T13:00:42;2.55;;;0.65;;
68250;SDS011;55066;51.560;4.642;2024-02-04T13:03:08;3.10;;;0.70;;
68250;SDS011;55066;51.560;4.642;2024-02-04T13:05:34;3.65;;;0.70;;
68250;SDS011;55066;51.560;4.642;2024-02-04T13:08:00;2.45;;;0.80;;
68250;SDS011;55066;51.560;4.642;2024-02-04T13:10:27;3.80;;;0.70;;
68250;SDS011;55066;51.560;4.642;2024-02-04T13:12:58;3.55;;;0.70;;
68250;SDS011;55066;51.560;4.642;2024-02-04T13:15:39;3.33;;;1.10;;
68250;SDS011;55066;51.560;4.642;2024-02-04T13:18:05;2.42;;;0.90;;
68250;SDS011;55066;51.560;4.642;2024-02-04T13:20:31;2.22;;;0.95;;
68250;SDS011;55066;51.560;4.642;2024-02-04T13:22:57;3.95;;;0.90;;
68250;SDS011;55066;51.560;4.642;2024-02-04T13:25:23;3.10;;;1.00;;
68250;SDS011;55066;51.560;4.642;2024-02-04T13:27:48;2.13;;;0.82;;
68250;SDS011;55066;51.560;4.642;2024-02-04T13:30:14;5.20;;;1.00;;
68250;SDS011;55066;51.560;4.642;2024-02-04T13:32:41;3.65;;;1.02;;
68250;SDS011;55066;51.560;4.642;2024-02-04T13:35:07;2.55;;;0.95;;
68250;SDS011;55066;51.560;4.642;2024-02-04T13:37:36;3.28;;;0.95;;
68250;SDS011;55066;51.560;4.642;2024-02-04T13:40:05;3.33;;;1.15;;
68250;SDS011;55066;51.560;4.642;2024-02-04T13:42:34;3.47;;;0.98;;
68250;SDS011;55066;51.560;4.642;2024-02-04T13:45:00;3.13;;;1.60;;
68250;SDS011;55066;51.560;4.642;2024-02-04T13:47:27;5.38;;;1.25;;
68250;SDS011;55066;51.560;4.642;2024-02-04T13:49:52;6.25;;;1.23;;
68250;SDS011;55066;51.560;4.642;2024-02-04T13:52:18;4.63;;;1.20;;
68250;SDS011;55066;51.560;4.642;2024-02-04T13:54:43;4.73;;;1.40;;
68250;SDS011;55066;51.560;4.642;2024-02-04T13:57:09;3.00;;;1.15;;
68250;SDS011;55066;51.560;4.642;2024-02-04T13:59:36;6.35;;;1.55;;
68250;SDS011;55066;51.560;4.642;2024-02-04T14:02:01;4.73;;;1.33;;
68250;SDS011;55066;51.560;4.642;2024-02-04T14:04:27;2.60;;;1.00;;
68250;SDS011;55066;51.560;4.642;2024-02-04T14:06:52;2.20;;;0.90;;
68250;SDS011;55066;51.560;4.642;2024-02-04T14:09:18;4.40;;;1.33;;
68250;SDS011;55066;51.560;4.642;2024-02-04T14:11:43;3.13;;;1.30;;
68250;SDS011;55066;51.560;4.642;2024-02-04T14:14:09;3.15;;;1.38;;
68250;SDS011;55066;51.560;4.642;2024-02-04T14:16:34;4.07;;;1.60;;
68250;SDS011;55066;51.560;4.642;2024-02-04T14:19:00;4.30;;;1.23;;
68250;SDS011;55066;51.560;4.642;2024-02-04T14:21:25;4.73;;;1.43;;
68250;SDS011;55066;51.560;4.642;2024-02-04T14:23:51;6.57;;;1.58;;
68250;SDS011;55066;51.560;4.642;2024-02-04T14:26:17;10.23;;;1.90;;
68250;SDS011;55066;51.560;4.642;2024-02-04T14:28:45;8.73;;;2.50;;
68250;SDS011;55066;51.560;4.642;2024-02-04T14:31:11;5.67;;;2.03;;
68250;SDS011;55066;51.560;4.642;2024-02-04T14:33:37;5.65;;;2.03;;
68250;SDS011;55066;51.560;4.642;2024-02-04T14:36:02;6.43;;;1.70;;
68250;SDS011;55066;51.560;4.642;2024-02-04T14:38:29;6.50;;;1.65;;
68250;SDS011;55066;51.560;4.642;2024-02-04T14:40:57;5.70;;;2.10;;
68250;SDS011;55066;51.560;4.642;2024-02-04T14:43:23;12.38;;;2.85;;